SBOSBO HAM / EDDH
Speedbird OnlineSpeedbird Online HAM / EDDH

Hamburg Airport
10:33 13.9°C

Location Hamburg, Germany
Latitude: 53.630401611328
Longitude: 9.9882297515869
Web Airport Website | Wikipedia
Altitude 16 Meter / 53 Feet
Distance 707 KM / 439 Miles
from London.
Time Zone UTC +2 hours (Europe/Berlin)
Codes IATA: HAM
ICAO: EDDH
Currency £1 equals EUR 1.15
Runways
RunwayLength (m)Surface
053250Asphalt
153666Asphalt
233250Asphalt
333666Asphalt
Radio
TypeDescriptionFrequency
AFISLANGEN INFORMATION125.1
ATISATIS123.125
DIRDIRECTOR118.2
GNDGND121.8
RDRBREMEN RADAR134.25
RMPAPRON121.7
TWRTWR126.85
Live ATC
METAR EDDH 060750Z AUTO 25014KT CAVOK 14/09 Q1023 TEMPO 26015G25KT
TAF TAF EDDH 060500Z 0606/0712 24012KT 9999 SCT025 BECMG 0606/0608 25015G25KT PROB30 TEMPO 0610/0613 25015G35KT BECMG 0615/0618 22007KT BECMG 0706/0709 20012KT BECMG 0709/0712 22015G25KT
Weather As Of 06 Oct 2022 10:33
Description Clear sky
Wind 33 km/h from West (250°)
Cloud Cover 0%
Precipitation Rain: none, Snow: none
Sunrise 07:30
Sunset 18:46
Lounges Hamburg Airport Lounge , Airport Plaza
Rotations During the last 90 days there were
223 flights from LHR
225 flights to LHR
1 flights to LGW


© 2017-2022 Speedbird Online